sensor_id;sensor_type;location;lat;lon;timestamp;P1;durP1;ratioP1;P2;durP2;ratioP2
50789;SDS011;37287;47.554;7.844;2022-12-29T00:01:55;5.70;;;2.25;;
50789;SDS011;37287;47.554;7.844;2022-12-29T00:04:22;4.90;;;2.60;;
50789;SDS011;37287;47.554;7.844;2022-12-29T00:06:48;3.00;;;2.35;;
50789;SDS011;37287;47.554;7.844;2022-12-29T00:09:15;2.35;;;2.15;;
50789;SDS011;37287;47.554;7.844;2022-12-29T00:11:42;5.03;;;2.58;;
50789;SDS011;37287;47.554;7.844;2022-12-29T00:14:09;3.03;;;2.53;;
50789;SDS011;37287;47.554;7.844;2022-12-29T00:16:55;3.22;;;2.58;;
50789;SDS011;37287;47.554;7.844;2022-12-29T00:19:22;2.90;;;2.65;;
50789;SDS011;37287;47.554;7.844;2022-12-29T00:22:09;5.40;;;2.70;;
50789;SDS011;37287;47.554;7.844;2022-12-29T00:24:55;3.78;;;2.80;;
50789;SDS011;37287;47.554;7.844;2022-12-29T00:27:28;4.63;;;2.90;;
50789;SDS011;37287;47.554;7.844;2022-12-29T00:30:17;2.65;;;2.00;;
50789;SDS011;37287;47.554;7.844;2022-12-29T00:33:17;5.53;;;2.47;;
50789;SDS011;37287;47.554;7.844;2022-12-29T00:38:35;2.40;;;1.92;;
50789;SDS011;37287;47.554;7.844;2022-12-29T00:41:22;2.80;;;2.20;;
50789;SDS011;37287;47.554;7.844;2022-12-29T00:44:08;2.93;;;1.90;;
50789;SDS011;37287;47.554;7.844;2022-12-29T00:46:37;3.35;;;2.60;;
50789;SDS011;37287;47.554;7.844;2022-12-29T00:49:06;2.20;;;2.00;;
50789;SDS011;37287;47.554;7.844;2022-12-29T00:51:53;2.13;;;1.92;;
50789;SDS011;37287;47.554;7.844;2022-12-29T00:54:20;2.38;;;2.00;;
50789;SDS011;37287;47.554;7.844;2022-12-29T00:56:47;3.53;;;2.63;;
50789;SDS011;37287;47.554;7.844;2022-12-29T00:59:18;2.83;;;2.38;;
50789;SDS011;37287;47.554;7.844;2022-12-29T01:01:45;3.50;;;2.78;;
50789;SDS011;37287;47.554;7.844;2022-12-29T01:04:13;3.75;;;2.20;;
50789;SDS011;37287;47.554;7.844;2022-12-29T01:06:40;2.58;;;2.10;;
50789;SDS011;37287;47.554;7.844;2022-12-29T01:09:07;3.40;;;2.72;;
50789;SDS011;37287;47.554;7.844;2022-12-29T01:11:54;4.10;;;3.08;;
50789;SDS011;37287;47.554;7.844;2022-12-29T01:14:21;3.50;;;3.10;;
50789;SDS011;37287;47.554;7.844;2022-12-29T01:16:49;4.10;;;2.92;;
50789;SDS011;37287;47.554;7.844;2022-12-29T01:19:16;3.83;;;2.35;;
50789;SDS011;37287;47.554;7.844;2022-12-29T01:21:43;2.50;;;2.30;;
50789;SDS011;37287;47.554;7.844;2022-12-29T01:24:11;2.95;;;2.38;;
50789;SDS011;37287;47.554;7.844;2022-12-29T01:26:37;4.57;;;2.20;;
50789;SDS011;37287;47.554;7.844;2022-12-29T01:29:04;2.70;;;2.00;;
50789;SDS011;37287;47.554;7.844;2022-12-29T01:31:30;3.13;;;2.70;;
50789;SDS011;37287;47.554;7.844;2022-12-29T01:33:57;4.32;;;2.60;;
50789;SDS011;37287;47.554;7.844;2022-12-29T01:36:24;3.40;;;2.22;;
50789;SDS011;37287;47.554;7.844;2022-12-29T01:38:51;2.63;;;2.20;;
50789;SDS011;37287;47.554;7.844;2022-12-29T01:41:18;2.60;;;2.35;;
50789;SDS011;37287;47.554;7.844;2022-12-29T01:43:48;3.47;;;3.05;;
50789;SDS011;37287;47.554;7.844;2022-12-29T01:51:43;2.95;;;2.00;;
50789;SDS011;37287;47.554;7.844;2022-12-29T01:54:32;4.68;;;2.40;;
50789;SDS011;37287;47.554;7.844;2022-12-29T01:57:03;5.05;;;2.75;;
50789;SDS011;37287;47.554;7.844;2022-12-29T01:59:38;2.45;;;1.80;;
50789;SDS011;37287;47.554;7.844;2022-12-29T02:02:09;2.83;;;1.48;;
50789;SDS011;37287;47.554;7.844;2022-12-29T02:04:36;4.20;;;2.10;;
50789;SDS011;37287;47.554;7.844;2022-12-29T02:07:12;2.28;;;2.08;;
50789;SDS011;37287;47.554;7.844;2022-12-29T02:09:47;2.95;;;2.15;;
50789;SDS011;37287;47.554;7.844;2022-12-29T02:12:16;2.30;;;2.10;;
50789;SDS011;37287;47.554;7.844;2022-12-29T02:14:46;3.10;;;2.10;;
50789;SDS011;37287;47.554;7.844;2022-12-29T02:25:56;2.97;;;1.80;;
50789;SDS011;37287;47.554;7.844;2022-12-29T02:28:33;3.00;;;2.47;;
50789;SDS011;37287;47.554;7.844;2022-12-29T02:31:16;4.45;;;1.80;;
50789;SDS011;37287;47.554;7.844;2022-12-29T02:39:23;2.30;;;1.88;;
50789;SDS011;37287;47.554;7.844;2022-12-29T02:42:21;3.13;;;2.13;;
50789;SDS011;37287;47.554;7.844;2022-12-29T02:45:16;3.03;;;2.38;;
50789;SDS011;37287;47.554;7.844;2022-12-29T02:47:48;4.28;;;2.42;;
50789;SDS011;37287;47.554;7.844;2022-12-29T02:50:21;3.67;;;2.40;;
50789;SDS011;37287;47.554;7.844;2022-12-29T02:53:09;2.53;;;2.33;;
50789;SDS011;37287;47.554;7.844;2022-12-29T02:55:39;3.22;;;2.50;;
50789;SDS011;37287;47.554;7.844;2022-12-29T03:00:48;4.03;;;3.05;;
50789;SDS011;37287;47.554;7.844;2022-12-29T03:03:32;5.32;;;3.45;;
50789;SDS011;37287;47.554;7.844;2022-12-29T03:06:19;3.95;;;3.05;;
50789;SDS011;37287;47.554;7.844;2022-12-29T03:09:15;3.15;;;2.85;;
50789;SDS011;37287;47.554;7.844;2022-12-29T03:11:59;3.35;;;2.72;;
50789;SDS011;37287;47.554;7.844;2022-12-29T03:20:06;4.65;;;2.50;;
50789;SDS011;37287;47.554;7.844;2022-12-29T03:22:35;2.50;;;2.00;;
50789;SDS011;37287;47.554;7.844;2022-12-29T03:25:26;2.15;;;1.95;;
50789;SDS011;37287;47.554;7.844;2022-12-29T03:27:57;2.33;;;2.00;;
50789;SDS011;37287;47.554;7.844;2022-12-29T03:30:28;2.88;;;2.20;;
50789;SDS011;37287;47.554;7.844;2022-12-29T03:33:01;2.83;;;1.90;;
50789;SDS011;37287;47.554;7.844;2022-12-29T03:35:32;3.38;;;2.25;;
50789;SDS011;37287;47.554;7.844;2022-12-29T03:40:28;2.35;;;2.10;;
50789;SDS011;37287;47.554;7.844;2022-12-29T03:42:57;3.55;;;2.10;;
50789;SDS011;37287;47.554;7.844;2022-12-29T03:45:24;4.20;;;2.40;;
50789;SDS011;37287;47.554;7.844;2022-12-29T03:47:51;3.20;;;2.15;;
50789;SDS011;37287;47.554;7.844;2022-12-29T03:50:19;2.55;;;2.00;;
50789;SDS011;37287;47.554;7.844;2022-12-29T03:52:46;3.70;;;2.70;;
50789;SDS011;37287;47.554;7.844;2022-12-29T03:55:12;3.13;;;2.45;;
50789;SDS011;37287;47.554;7.844;2022-12-29T03:57:39;2.78;;;2.13;;
50789;SDS011;37287;47.554;7.844;2022-12-29T04:00:06;2.67;;;2.22;;
50789;SDS011;37287;47.554;7.844;2022-12-29T04:02:33;3.00;;;2.20;;
50789;SDS011;37287;47.554;7.844;2022-12-29T04:05:00;2.92;;;2.35;;
50789;SDS011;37287;47.554;7.844;2022-12-29T04:07:26;2.17;;;1.98;;
50789;SDS011;37287;47.554;7.844;2022-12-29T04:09:53;4.45;;;2.00;;
50789;SDS011;37287;47.554;7.844;2022-12-29T04:12:20;2.83;;;1.90;;
50789;SDS011;37287;47.554;7.844;2022-12-29T04:14:46;3.10;;;2.25;;
50789;SDS011;37287;47.554;7.844;2022-12-29T04:17:13;2.13;;;1.95;;
50789;SDS011;37287;47.554;7.844;2022-12-29T04:19:39;4.05;;;1.90;;
50789;SDS011;37287;47.554;7.844;2022-12-29T04:22:06;4.43;;;2.60;;
50789;SDS011;37287;47.554;7.844;2022-12-29T04:24:33;6.32;;;2.35;;
50789;SDS011;37287;47.554;7.844;2022-12-29T04:26:59;4.90;;;2.40;;
50789;SDS011;37287;47.554;7.844;2022-12-29T04:29:26;3.22;;;2.60;;
50789;SDS011;37287;47.554;7.844;2022-12-29T04:31:52;3.80;;;2.53;;
50789;SDS011;37287;47.554;7.844;2022-12-29T04:34:19;4.88;;;2.50;;
50789;SDS011;37287;47.554;7.844;2022-12-29T04:36:45;2.20;;;2.00;;
50789;SDS011;37287;47.554;7.844;2022-12-29T04:39:12;2.95;;;2.10;;
50789;SDS011;37287;47.554;7.844;2022-12-29T04:41:39;2.28;;;2.08;;
50789;SDS011;37287;47.554;7.844;2022-12-29T04:44:05;4.22;;;2.30;;
50789;SDS011;37287;47.554;7.844;2022-12-29T04:46:32;2.55;;;2.00;;
50789;SDS011;37287;47.554;7.844;2022-12-29T04:48:59;3.08;;;2.22;;
50789;SDS011;37287;47.554;7.844;2022-12-29T04:51:30;4.93;;;3.00;;
50789;SDS011;37287;47.554;7.844;2022-12-29T04:53:57;3.58;;;2.72;;
50789;SDS011;37287;47.554;7.844;2022-12-29T04:56:23;3.53;;;2.25;;
50789;SDS011;37287;47.554;7.844;2022-12-29T04:58:50;4.03;;;2.40;;
50789;SDS011;37287;47.554;7.844;2022-12-29T05:01:16;2.80;;;2.05;;
50789;SDS011;37287;47.554;7.844;2022-12-29T05:03:43;2.83;;;2.20;;
50789;SDS011;37287;47.554;7.844;2022-12-29T05:06:09;2.67;;;2.00;;
50789;SDS011;37287;47.554;7.844;2022-12-29T05:08:36;3.67;;;2.10;;
50789;SDS011;37287;47.554;7.844;2022-12-29T05:11:02;2.53;;;1.80;;
50789;SDS011;37287;47.554;7.844;2022-12-29T05:13:29;2.42;;;1.90;;
50789;SDS011;37287;47.554;7.844;2022-12-29T05:15:55;2.40;;;2.00;;
50789;SDS011;37287;47.554;7.844;2022-12-29T05:18:22;5.35;;;2.35;;
50789;SDS011;37287;47.554;7.844;2022-12-29T05:20:48;3.03;;;2.60;;
50789;SDS011;37287;47.554;7.844;2022-12-29T05:23:15;2.50;;;2.30;;
50789;SDS011;37287;47.554;7.844;2022-12-29T05:25:43;3.80;;;2.78;;
50789;SDS011;37287;47.554;7.844;2022-12-29T05:28:12;6.15;;;2.97;;
50789;SDS011;37287;47.554;7.844;2022-12-29T05:30:39;7.32;;;2.50;;
50789;SDS011;37287;47.554;7.844;2022-12-29T05:33:06;3.03;;;2.45;;
50789;SDS011;37287;47.554;7.844;2022-12-29T05:35:32;3.45;;;2.63;;
50789;SDS011;37287;47.554;7.844;2022-12-29T05:37:59;4.60;;;2.33;;
50789;SDS011;37287;47.554;7.844;2022-12-29T05:40:26;4.70;;;2.40;;
50789;SDS011;37287;47.554;7.844;2022-12-29T05:42:52;3.60;;;2.30;;
50789;SDS011;37287;47.554;7.844;2022-12-29T05:45:19;2.40;;;2.20;;
50789;SDS011;37287;47.554;7.844;2022-12-29T05:47:45;2.60;;;2.10;;
50789;SDS011;37287;47.554;7.844;2022-12-29T05:50:12;4.32;;;2.40;;
50789;SDS011;37287;47.554;7.844;2022-12-29T05:52:39;4.70;;;2.33;;
50789;SDS011;37287;47.554;7.844;2022-12-29T05:55:05;3.28;;;2.03;;
50789;SDS011;37287;47.554;7.844;2022-12-29T05:57:32;5.18;;;1.80;;
50789;SDS011;37287;47.554;7.844;2022-12-29T05:59:59;3.10;;;2.00;;
50789;SDS011;37287;47.554;7.844;2022-12-29T06:02:25;2.67;;;1.75;;
50789;SDS011;37287;47.554;7.844;2022-12-29T06:04:52;3.13;;;1.80;;
50789;SDS011;37287;47.554;7.844;2022-12-29T06:07:19;3.72;;;1.80;;
50789;SDS011;37287;47.554;7.844;2022-12-29T06:09:45;1.65;;;1.55;;
50789;SDS011;37287;47.554;7.844;2022-12-29T06:12:12;2.10;;;1.90;;
50789;SDS011;37287;47.554;7.844;2022-12-29T06:14:39;5.22;;;1.85;;
50789;SDS011;37287;47.554;7.844;2022-12-29T06:17:05;2.70;;;2.05;;
50789;SDS011;37287;47.554;7.844;2022-12-29T06:19:32;3.72;;;2.00;;
50789;SDS011;37287;47.554;7.844;2022-12-29T06:21:58;3.25;;;2.03;;
50789;SDS011;37287;47.554;7.844;2022-12-29T06:24:25;2.60;;;1.75;;
50789;SDS011;37287;47.554;7.844;2022-12-29T06:26:52;1.90;;;1.70;;
50789;SDS011;37287;47.554;7.844;2022-12-29T06:29:18;4.05;;;2.10;;
50789;SDS011;37287;47.554;7.844;2022-12-29T06:31:46;2.35;;;1.80;;
50789;SDS011;37287;47.554;7.844;2022-12-29T06:34:13;2.13;;;1.80;;
50789;SDS011;37287;47.554;7.844;2022-12-29T06:36:40;1.90;;;1.65;;
50789;SDS011;37287;47.554;7.844;2022-12-29T06:39:06;2.67;;;1.45;;
50789;SDS011;37287;47.554;7.844;2022-12-29T06:41:33;2.47;;;1.75;;
50789;SDS011;37287;47.554;7.844;2022-12-29T06:43:59;6.50;;;2.05;;
50789;SDS011;37287;47.554;7.844;2022-12-29T06:46:26;3.72;;;1.73;;
50789;SDS011;37287;47.554;7.844;2022-12-29T06:48:53;1.80;;;1.70;;
50789;SDS011;37287;47.554;7.844;2022-12-29T06:51:19;4.97;;;1.58;;
50789;SDS011;37287;47.554;7.844;2022-12-29T06:53:46;2.97;;;1.55;;
50789;SDS011;37287;47.554;7.844;2022-12-29T06:56:12;2.50;;;1.70;;
50789;SDS011;37287;47.554;7.844;2022-12-29T06:58:39;2.50;;;1.23;;
50789;SDS011;37287;47.554;7.844;2022-12-29T07:01:05;3.90;;;1.40;;
50789;SDS011;37287;47.554;7.844;2022-12-29T07:03:32;1.60;;;1.38;;
50789;SDS011;37287;47.554;7.844;2022-12-29T07:05:58;1.85;;;1.40;;
50789;SDS011;37287;47.554;7.844;2022-12-29T07:08:28;2.40;;;1.35;;
50789;SDS011;37287;47.554;7.844;2022-12-29T07:10:55;2.30;;;1.30;;
50789;SDS011;37287;47.554;7.844;2022-12-29T07:13:21;2.90;;;1.10;;
50789;SDS011;37287;47.554;7.844;2022-12-29T07:15:48;1.20;;;1.10;;
50789;SDS011;37287;47.554;7.844;2022-12-29T07:18:14;1.48;;;1.10;;
50789;SDS011;37287;47.554;7.844;2022-12-29T07:20:42;2.78;;;1.00;;
50789;SDS011;37287;47.554;7.844;2022-12-29T07:23:08;1.63;;;1.25;;
50789;SDS011;37287;47.554;7.844;2022-12-29T07:25:35;8.90;;;1.38;;
50789;SDS011;37287;47.554;7.844;2022-12-29T07:28:02;1.45;;;1.10;;
50789;SDS011;37287;47.554;7.844;2022-12-29T07:30:29;1.45;;;1.27;;
50789;SDS011;37287;47.554;7.844;2022-12-29T07:32:56;1.02;;;0.90;;
50789;SDS011;37287;47.554;7.844;2022-12-29T07:35:23;1.92;;;1.02;;
50789;SDS011;37287;47.554;7.844;2022-12-29T07:37:49;2.13;;;1.30;;
50789;SDS011;37287;47.554;7.844;2022-12-29T07:40:16;2.08;;;1.20;;
50789;SDS011;37287;47.554;7.844;2022-12-29T07:42:43;4.10;;;1.33;;
50789;SDS011;37287;47.554;7.844;2022-12-29T07:45:09;3.13;;;1.38;;
50789;SDS011;37287;47.554;7.844;2022-12-29T07:47:36;2.83;;;1.20;;
50789;SDS011;37287;47.554;7.844;2022-12-29T07:50:03;4.28;;;1.30;;
50789;SDS011;37287;47.554;7.844;2022-12-29T07:52:30;4.05;;;1.48;;
50789;SDS011;37287;47.554;7.844;2022-12-29T07:54:56;4.18;;;1.52;;
50789;SDS011;37287;47.554;7.844;2022-12-29T07:57:23;1.35;;;1.10;;
50789;SDS011;37287;47.554;7.844;2022-12-29T07:59:57;3.03;;;1.20;;
50789;SDS011;37287;47.554;7.844;2022-12-29T08:02:23;1.50;;;1.25;;
50789;SDS011;37287;47.554;7.844;2022-12-29T08:04:52;3.38;;;1.25;;
50789;SDS011;37287;47.554;7.844;2022-12-29T08:07:19;1.98;;;1.10;;
50789;SDS011;37287;47.554;7.844;2022-12-29T08:09:45;2.15;;;1.10;;
50789;SDS011;37287;47.554;7.844;2022-12-29T08:12:12;1.83;;;1.02;;
50789;SDS011;37287;47.554;7.844;2022-12-29T08:14:38;1.88;;;1.10;;
50789;SDS011;37287;47.554;7.844;2022-12-29T08:17:04;3.38;;;1.25;;
50789;SDS011;37287;47.554;7.844;2022-12-29T08:19:31;3.10;;;1.40;;
50789;SDS011;37287;47.554;7.844;2022-12-29T08:21:57;6.07;;;1.40;;
50789;SDS011;37287;47.554;7.844;2022-12-29T08:24:24;2.45;;;1.00;;
50789;SDS011;37287;47.554;7.844;2022-12-29T08:26:51;5.90;;;1.25;;
50789;SDS011;37287;47.554;7.844;2022-12-29T08:29:18;2.08;;;0.85;;
50789;SDS011;37287;47.554;7.844;2022-12-29T08:31:45;3.42;;;1.30;;
50789;SDS011;37287;47.554;7.844;2022-12-29T08:34:12;2.10;;;1.17;;
50789;SDS011;37287;47.554;7.844;2022-12-29T08:36:38;2.45;;;1.30;;
50789;SDS011;37287;47.554;7.844;2022-12-29T08:39:05;2.40;;;1.23;;
50789;SDS011;37287;47.554;7.844;2022-12-29T08:41:32;2.85;;;1.27;;
50789;SDS011;37287;47.554;7.844;2022-12-29T08:43:58;3.90;;;1.25;;
50789;SDS011;37287;47.554;7.844;2022-12-29T08:46:25;3.78;;;1.52;;
50789;SDS011;37287;47.554;7.844;2022-12-29T08:48:51;2.47;;;1.00;;
50789;SDS011;37287;47.554;7.844;2022-12-29T08:51:19;2.03;;;1.00;;
50789;SDS011;37287;47.554;7.844;2022-12-29T08:53:50;2.03;;;0.95;;
50789;SDS011;37287;47.554;7.844;2022-12-29T08:56:17;3.85;;;1.42;;
50789;SDS011;37287;47.554;7.844;2022-12-29T08:58:44;4.50;;;1.25;;
50789;SDS011;37287;47.554;7.844;2022-12-29T09:01:11;3.40;;;1.10;;
50789;SDS011;37287;47.554;7.844;2022-12-29T09:03:37;3.78;;;1.33;;
50789;SDS011;37287;47.554;7.844;2022-12-29T09:06:24;1.48;;;0.98;;
50789;SDS011;37287;47.554;7.844;2022-12-29T09:08:52;3.55;;;1.10;;
50789;SDS011;37287;47.554;7.844;2022-12-29T09:11:21;3.30;;;1.17;;
50789;SDS011;37287;47.554;7.844;2022-12-29T09:13:49;4.25;;;1.30;;
50789;SDS011;37287;47.554;7.844;2022-12-29T09:16:17;7.60;;;1.30;;
50789;SDS011;37287;47.554;7.844;2022-12-29T09:18:45;4.18;;;1.10;;
50789;SDS011;37287;47.554;7.844;2022-12-29T09:21:12;3.42;;;1.20;;
50789;SDS011;37287;47.554;7.844;2022-12-29T09:23:39;2.08;;;1.00;;
50789;SDS011;37287;47.554;7.844;2022-12-29T09:26:06;4.07;;;1.08;;
50789;SDS011;37287;47.554;7.844;2022-12-29T09:28:34;4.32;;;1.27;;
50789;SDS011;37287;47.554;7.844;2022-12-29T09:31:01;2.22;;;1.25;;
50789;SDS011;37287;47.554;7.844;2022-12-29T09:33:27;3.17;;;0.90;;
50789;SDS011;37287;47.554;7.844;2022-12-29T09:35:55;3.08;;;1.05;;
50789;SDS011;37287;47.554;7.844;2022-12-29T09:38:24;1.88;;;1.10;;
50789;SDS011;37287;47.554;7.844;2022-12-29T09:40:53;3.10;;;1.20;;
50789;SDS011;37287;47.554;7.844;2022-12-29T09:43:43;6.68;;;1.17;;
50789;SDS011;37287;47.554;7.844;2022-12-29T09:46:23;4.68;;;1.25;;
50789;SDS011;37287;47.554;7.844;2022-12-29T09:51:25;3.33;;;1.05;;
50789;SDS011;37287;47.554;7.844;2022-12-29T09:53:53;2.90;;;1.15;;
50789;SDS011;37287;47.554;7.844;2022-12-29T09:56:28;2.60;;;1.10;;
50789;SDS011;37287;47.554;7.844;2022-12-29T09:59:05;3.88;;;1.38;;
50789;SDS011;37287;47.554;7.844;2022-12-29T10:01:44;2.83;;;1.17;;
50789;SDS011;37287;47.554;7.844;2022-12-29T10:04:15;4.28;;;1.17;;
50789;SDS011;37287;47.554;7.844;2022-12-29T10:06:43;2.03;;;0.98;;
50789;SDS011;37287;47.554;7.844;2022-12-29T10:09:49;4.75;;;0.90;;
50789;SDS011;37287;47.554;7.844;2022-12-29T10:17:48;1.52;;;0.65;;
50789;SDS011;37287;47.554;7.844;2022-12-29T10:20:31;1.83;;;0.95;;
50789;SDS011;37287;47.554;7.844;2022-12-29T10:26:22;2.53;;;1.00;;
50789;SDS011;37287;47.554;7.844;2022-12-29T10:31:35;2.08;;;0.90;;
50789;SDS011;37287;47.554;7.844;2022-12-29T10:34:10;1.27;;;1.00;;
50789;SDS011;37287;47.554;7.844;2022-12-29T10:36:54;1.98;;;1.08;;
50789;SDS011;37287;47.554;7.844;2022-12-29T10:39:28;1.23;;;0.82;;
50789;SDS011;37287;47.554;7.844;2022-12-29T10:42:10;1.52;;;0.93;;
50789;SDS011;37287;47.554;7.844;2022-12-29T10:44:58;1.30;;;0.88;;
50789;SDS011;37287;47.554;7.844;2022-12-29T10:47:29;1.50;;;0.82;;
50789;SDS011;37287;47.554;7.844;2022-12-29T10:50:00;0.80;;;0.77;;
50789;SDS011;37287;47.554;7.844;2022-12-29T10:52:28;3.08;;;1.05;;
50789;SDS011;37287;47.554;7.844;2022-12-29T10:54:58;1.92;;;0.80;;
50789;SDS011;37287;47.554;7.844;2022-12-29T11:00:10;3.03;;;0.80;;
50789;SDS011;37287;47.554;7.844;2022-12-29T11:06:04;2.80;;;0.70;;
50789;SDS011;37287;47.554;7.844;2022-12-29T11:08:51;0.88;;;0.70;;
50789;SDS011;37287;47.554;7.844;2022-12-29T11:11:24;2.33;;;0.90;;
50789;SDS011;37287;47.554;7.844;2022-12-29T11:14:08;2.90;;;1.05;;
50789;SDS011;37287;47.554;7.844;2022-12-29T11:16:39;1.67;;;0.90;;
50789;SDS011;37287;47.554;7.844;2022-12-29T11:19:20;1.75;;;0.80;;
50789;SDS011;37287;47.554;7.844;2022-12-29T11:21:49;2.80;;;0.80;;
50789;SDS011;37287;47.554;7.844;2022-12-29T11:24:23;3.70;;;0.90;;
50789;SDS011;37287;47.554;7.844;2022-12-29T11:26:55;0.40;;;0.40;;
50789;SDS011;37287;47.554;7.844;2022-12-29T11:29:38;1.13;;;0.80;;
50789;SDS011;37287;47.554;7.844;2022-12-29T11:34:54;1.17;;;0.90;;
50789;SDS011;37287;47.554;7.844;2022-12-29T11:37:41;0.90;;;0.90;;
50789;SDS011;37287;47.554;7.844;2022-12-29T11:40:18;1.73;;;0.70;;
50789;SDS011;37287;47.554;7.844;2022-12-29T11:43:19;2.90;;;1.30;;
50789;SDS011;37287;47.554;7.844;2022-12-29T11:45:55;1.98;;;1.23;;
50789;SDS011;37287;47.554;7.844;2022-12-29T11:48:23;0.70;;;0.70;;
50789;SDS011;37287;47.554;7.844;2022-12-29T11:50:55;1.55;;;1.00;;
50789;SDS011;37287;47.554;7.844;2022-12-29T11:53:28;1.48;;;0.82;;
50789;SDS011;37287;47.554;7.844;2022-12-29T11:56:08;1.13;;;0.52;;
50789;SDS011;37287;47.554;7.844;2022-12-29T11:58:38;1.15;;;0.70;;
50789;SDS011;37287;47.554;7.844;2022-12-29T12:01:13;0.98;;;0.70;;
50789;SDS011;37287;47.554;7.844;2022-12-29T12:03:48;1.30;;;0.98;;
50789;SDS011;37287;47.554;7.844;2022-12-29T12:06:25;0.70;;;0.50;;
50789;SDS011;37287;47.554;7.844;2022-12-29T12:09:38;0.65;;;0.50;;
50789;SDS011;37287;47.554;7.844;2022-12-29T12:11:55;0.60;;;0.60;;
50789;SDS011;37287;47.554;7.844;2022-12-29T12:17:02;1.48;;;0.73;;
50789;SDS011;37287;47.554;7.844;2022-12-29T12:25:45;2.38;;;0.52;;
50789;SDS011;37287;47.554;7.844;2022-12-29T12:28:21;2.30;;;0.80;;
50789;SDS011;37287;47.554;7.844;2022-12-29T12:31:02;8.20;;;0.82;;
50789;SDS011;37287;47.554;7.844;2022-12-29T12:33:38;1.63;;;0.80;;
50789;SDS011;37287;47.554;7.844;2022-12-29T12:36:18;2.55;;;0.98;;
50789;SDS011;37287;47.554;7.844;2022-12-29T12:38:54;0.95;;;0.88;;
50789;SDS011;37287;47.554;7.844;2022-12-29T12:41:37;1.83;;;0.70;;
50789;SDS011;37287;47.554;7.844;2022-12-29T12:44:29;0.63;;;0.60;;
50789;SDS011;37287;47.554;7.844;2022-12-29T12:58:39;1.05;;;0.70;;
50789;SDS011;37287;47.554;7.844;2022-12-29T13:04:00;0.60;;;0.60;;
50789;SDS011;37287;47.554;7.844;2022-12-29T13:06:42;0.65;;;0.52;;
50789;SDS011;37287;47.554;7.844;2022-12-29T13:09:34;1.05;;;0.60;;
50789;SDS011;37287;47.554;7.844;2022-12-29T13:15:09;0.73;;;0.50;;
50789;SDS011;37287;47.554;7.844;2022-12-29T13:20:28;2.65;;;0.80;;
50789;SDS011;37287;47.554;7.844;2022-12-29T13:26:05;1.70;;;0.70;;
50789;SDS011;37287;47.554;7.844;2022-12-29T13:33:57;0.80;;;0.60;;
50789;SDS011;37287;47.554;7.844;2022-12-29T13:36:36;1.63;;;0.60;;
50789;SDS011;37287;47.554;7.844;2022-12-29T13:39:28;2.22;;;0.57;;
50789;SDS011;37287;47.554;7.844;2022-12-29T13:42:01;4.05;;;0.80;;
50789;SDS011;37287;47.554;7.844;2022-12-29T13:44:36;0.45;;;0.32;;
50789;SDS011;37287;47.554;7.844;2022-12-29T13:47:13;1.40;;;0.88;;
50789;SDS011;37287;47.554;7.844;2022-12-29T13:52:36;1.65;;;0.70;;
50789;SDS011;37287;47.554;7.844;2022-12-29T13:58:03;1.27;;;0.60;;
50789;SDS011;37287;47.554;7.844;2022-12-29T14:06:22;0.65;;;0.65;;
50789;SDS011;37287;47.554;7.844;2022-12-29T14:08:54;0.98;;;0.60;;
50789;SDS011;37287;47.554;7.844;2022-12-29T14:11:28;2.40;;;0.60;;
50789;SDS011;37287;47.554;7.844;2022-12-29T14:14:11;0.65;;;0.60;;
50789;SDS011;37287;47.554;7.844;2022-12-29T14:16:45;2.28;;;0.80;;
50789;SDS011;37287;47.554;7.844;2022-12-29T14:19:19;1.33;;;0.80;;
50789;SDS011;37287;47.554;7.844;2022-12-29T14:21:52;2.65;;;0.80;;
50789;SDS011;37287;47.554;7.844;2022-12-29T14:24:37;1.90;;;1.20;;
50789;SDS011;37287;47.554;7.844;2022-12-29T14:34:48;1.77;;;0.88;;
50789;SDS011;37287;47.554;7.844;2022-12-29T14:37:25;0.68;;;0.68;;
50789;SDS011;37287;47.554;7.844;2022-12-29T14:42:47;0.65;;;0.50;;
50789;SDS011;37287;47.554;7.844;2022-12-29T14:47:49;0.75;;;0.50;;
50789;SDS011;37287;47.554;7.844;2022-12-29T14:50:18;0.65;;;0.57;;
50789;SDS011;37287;47.554;7.844;2022-12-29T14:52:54;0.82;;;0.70;;
50789;SDS011;37287;47.554;7.844;2022-12-29T14:58:31;2.22;;;0.55;;
50789;SDS011;37287;47.554;7.844;2022-12-29T15:01:12;1.73;;;0.68;;
50789;SDS011;37287;47.554;7.844;2022-12-29T15:03:45;1.70;;;0.80;;
50789;SDS011;37287;47.554;7.844;2022-12-29T15:06:16;2.08;;;0.80;;
50789;SDS011;37287;47.554;7.844;2022-12-29T15:12:13;4.78;;;0.70;;
50789;SDS011;37287;47.554;7.844;2022-12-29T15:16:54;3.33;;;0.85;;
50789;SDS011;37287;47.554;7.844;2022-12-29T15:19:24;0.77;;;0.60;;
50789;SDS011;37287;47.554;7.844;2022-12-29T15:21:52;1.00;;;0.90;;
50789;SDS011;37287;47.554;7.844;2022-12-29T15:24:20;2.35;;;0.70;;
50789;SDS011;37287;47.554;7.844;2022-12-29T15:26:51;1.67;;;0.70;;
50789;SDS011;37287;47.554;7.844;2022-12-29T15:32:15;0.70;;;0.70;;
50789;SDS011;37287;47.554;7.844;2022-12-29T15:34:47;1.05;;;0.70;;
50789;SDS011;37287;47.554;7.844;2022-12-29T15:37:17;2.00;;;0.90;;
50789;SDS011;37287;47.554;7.844;2022-12-29T15:39:49;1.00;;;0.80;;
50789;SDS011;37287;47.554;7.844;2022-12-29T15:42:36;1.02;;;0.73;;
50789;SDS011;37287;47.554;7.844;2022-12-29T15:45:12;0.60;;;0.50;;
50789;SDS011;37287;47.554;7.844;2022-12-29T15:47:41;1.77;;;0.90;;
50789;SDS011;37287;47.554;7.844;2022-12-29T15:50:15;1.23;;;0.77;;
50789;SDS011;37287;47.554;7.844;2022-12-29T15:52:49;1.38;;;0.60;;
50789;SDS011;37287;47.554;7.844;2022-12-29T15:55:21;1.08;;;0.90;;
50789;SDS011;37287;47.554;7.844;2022-12-29T15:57:57;1.05;;;1.00;;
50789;SDS011;37287;47.554;7.844;2022-12-29T16:00:27;1.17;;;0.77;;
50789;SDS011;37287;47.554;7.844;2022-12-29T16:02:55;1.27;;;0.88;;
50789;SDS011;37287;47.554;7.844;2022-12-29T16:05:31;0.60;;;0.60;;
50789;SDS011;37287;47.554;7.844;2022-12-29T16:08:02;0.50;;;0.50;;
50789;SDS011;37287;47.554;7.844;2022-12-29T16:10:31;0.85;;;0.82;;
50789;SDS011;37287;47.554;7.844;2022-12-29T16:13:06;1.48;;;1.13;;
50789;SDS011;37287;47.554;7.844;2022-12-29T16:15:54;0.60;;;0.60;;
50789;SDS011;37287;47.554;7.844;2022-12-29T16:18:29;2.25;;;1.00;;
50789;SDS011;37287;47.554;7.844;2022-12-29T16:21:01;2.30;;;0.70;;
50789;SDS011;37287;47.554;7.844;2022-12-29T16:23:30;1.05;;;0.90;;
50789;SDS011;37287;47.554;7.844;2022-12-29T16:25:58;0.77;;;0.63;;
50789;SDS011;37287;47.554;7.844;2022-12-29T16:28:41;2.05;;;0.60;;
50789;SDS011;37287;47.554;7.844;2022-12-29T16:31:21;1.58;;;1.05;;
50789;SDS011;37287;47.554;7.844;2022-12-29T16:33:54;2.22;;;1.58;;
50789;SDS011;37287;47.554;7.844;2022-12-29T16:38:51;1.52;;;0.85;;
50789;SDS011;37287;47.554;7.844;2022-12-29T16:41:31;3.78;;;0.93;;
50789;SDS011;37287;47.554;7.844;2022-12-29T16:44:11;1.27;;;1.00;;
50789;SDS011;37287;47.554;7.844;2022-12-29T16:46:58;0.70;;;0.70;;
50789;SDS011;37287;47.554;7.844;2022-12-29T16:49:29;1.20;;;1.00;;
50789;SDS011;37287;47.554;7.844;2022-12-29T16:51:57;2.03;;;1.15;;
50789;SDS011;37287;47.554;7.844;2022-12-29T16:54:24;3.88;;;2.35;;
50789;SDS011;37287;47.554;7.844;2022-12-29T16:56:59;3.67;;;2.80;;
50789;SDS011;37287;47.554;7.844;2022-12-29T16:59:28;3.67;;;2.70;;
50789;SDS011;37287;47.554;7.844;2022-12-29T17:02:01;3.80;;;3.10;;
50789;SDS011;37287;47.554;7.844;2022-12-29T17:04:33;2.97;;;2.40;;
50789;SDS011;37287;47.554;7.844;2022-12-29T17:07:00;2.22;;;1.80;;
50789;SDS011;37287;47.554;7.844;2022-12-29T17:09:27;2.15;;;1.30;;
50789;SDS011;37287;47.554;7.844;2022-12-29T17:11:55;2.40;;;1.50;;
50789;SDS011;37287;47.554;7.844;2022-12-29T17:14:42;1.88;;;1.48;;
50789;SDS011;37287;47.554;7.844;2022-12-29T17:19:41;1.30;;;0.95;;
50789;SDS011;37287;47.554;7.844;2022-12-29T17:22:13;1.23;;;0.88;;
50789;SDS011;37287;47.554;7.844;2022-12-29T17:24:42;0.82;;;0.55;;
50789;SDS011;37287;47.554;7.844;2022-12-29T17:27:10;1.65;;;0.70;;
50789;SDS011;37287;47.554;7.844;2022-12-29T17:29:46;0.75;;;0.65;;